createdAt,value
2022-10-08T00:02:03.439Z,16.30
2022-10-08T00:04:30.327Z,16.20
2022-10-08T00:06:57.110Z,16.30
2022-10-08T00:09:23.907Z,16.40
2022-10-08T00:11:50.667Z,16.40
2022-10-08T00:14:17.413Z,16.40
2022-10-08T00:16:44.264Z,16.40
2022-10-08T00:19:12.378Z,16.40
2022-10-08T00:21:40.005Z,16.40
2022-10-08T00:24:08.116Z,16.40
2022-10-08T00:26:41.187Z,16.30
2022-10-08T00:29:11.462Z,16.30
2022-10-08T00:31:40.569Z,16.30
2022-10-08T00:34:08.718Z,16.20
2022-10-08T00:36:37.254Z,16.30
2022-10-08T00:39:05.282Z,16.20
2022-10-08T00:41:33.145Z,16.10
2022-10-08T00:44:03.168Z,16.20
2022-10-08T00:46:32.708Z,16.10
2022-10-08T00:49:02.526Z,16.00
2022-10-08T00:51:30.353Z,16.00
2022-10-08T00:53:57.102Z,16.00
2022-10-08T00:56:24.476Z,15.90
2022-10-08T00:58:51.677Z,16.10
2022-10-08T01:01:18.483Z,16.10
2022-10-08T01:03:45.345Z,16.10
2022-10-08T01:06:25.226Z,16.10
2022-10-08T01:08:59.793Z,16.00
2022-10-08T01:11:32.482Z,16.00
2022-10-08T01:14:05.285Z,16.00
2022-10-08T01:16:40.108Z,16.00
2022-10-08T01:19:13.030Z,15.90
2022-10-08T01:21:48.752Z,16.00
2022-10-08T01:24:50.493Z,15.90
2022-10-08T01:27:34.627Z,15.90
2022-10-08T01:30:03.917Z,15.80
2022-10-08T01:32:34.980Z,15.90
2022-10-08T01:35:09.944Z,15.80
2022-10-08T01:37:38.741Z,15.70
2022-10-08T01:40:09.499Z,15.70
2022-10-08T01:42:38.093Z,15.70
2022-10-08T01:45:06.926Z,15.70
2022-10-08T01:47:39.588Z,15.70
2022-10-08T01:50:15.813Z,15.70
2022-10-08T01:52:50.892Z,15.70
2022-10-08T01:55:22.315Z,15.70
2022-10-08T01:57:49.601Z,15.70
2022-10-08T02:00:17.348Z,15.90
2022-10-08T02:02:44.783Z,15.80
2022-10-08T02:05:12.379Z,15.80
2022-10-08T02:07:42.808Z,15.80
2022-10-08T02:10:21.872Z,15.80
2022-10-08T02:12:48.911Z,15.70
2022-10-08T02:15:17.756Z,15.80
2022-10-08T02:17:56.094Z,15.90
2022-10-08T02:20:25.619Z,15.80
2022-10-08T02:23:10.887Z,15.70
2022-10-08T02:25:40.856Z,15.70
2022-10-08T02:28:16.783Z,15.70
2022-10-08T02:30:47.656Z,15.70
2022-10-08T02:33:16.856Z,15.70
2022-10-08T02:35:46.451Z,15.70
2022-10-08T02:38:31.839Z,15.70
2022-10-08T02:41:00.075Z,15.80
2022-10-08T02:43:30.604Z,15.70
2022-10-08T02:46:00.366Z,15.70
2022-10-08T02:48:29.431Z,15.80
2022-10-08T02:50:57.021Z,15.80
2022-10-08T02:53:24.480Z,15.70
2022-10-08T02:55:56.838Z,15.70
2022-10-08T02:58:24.144Z,15.70
2022-10-08T03:01:28.515Z,15.70
2022-10-08T03:04:10.565Z,15.70
2022-10-08T03:06:37.258Z,15.70
2022-10-08T03:09:06.831Z,15.70
2022-10-08T03:11:34.694Z,15.60
2022-10-08T03:14:05.764Z,15.60
2022-10-08T03:16:36.776Z,15.60
2022-10-08T03:19:04.175Z,15.70
2022-10-08T03:21:31.812Z,15.70
2022-10-08T03:23:58.623Z,15.70
2022-10-08T03:26:25.333Z,15.80
2022-10-08T03:28:52.511Z,15.70
2022-10-08T03:31:19.459Z,15.60
2022-10-08T03:33:50.368Z,15.50
2022-10-08T03:36:17.140Z,15.50
2022-10-08T03:38:44.075Z,15.40
2022-10-08T03:41:10.842Z,15.40
2022-10-08T03:43:37.872Z,15.30
2022-10-08T03:46:04.906Z,15.40
2022-10-08T03:48:31.765Z,15.20
2022-10-08T03:50:59.629Z,15.30
2022-10-08T03:53:26.888Z,15.30
2022-10-08T03:55:54.079Z,15.20
2022-10-08T03:58:20.863Z,15.10
2022-10-08T04:01:00.870Z,14.80
2022-10-08T04:03:29.740Z,14.70
2022-10-08T04:05:57.074Z,14.60
2022-10-08T04:08:23.980Z,14.50
2022-10-08T04:10:50.773Z,14.60
2022-10-08T04:13:17.911Z,14.50
2022-10-08T04:15:45.138Z,14.30
2022-10-08T04:18:13.821Z,14.30
2022-10-08T04:20:41.128Z,14.20
2022-10-08T04:23:08.411Z,14.10
2022-10-08T04:25:36.385Z,14.00
2022-10-08T04:28:04.266Z,13.90
2022-10-08T04:30:31.461Z,13.90
2022-10-08T04:32:58.547Z,13.80
2022-10-08T04:35:25.327Z,13.70
2022-10-08T04:37:52.034Z,13.80
2022-10-08T04:40:18.799Z,13.70
2022-10-08T04:42:49.857Z,13.70
2022-10-08T04:45:16.614Z,13.70
2022-10-08T04:47:43.700Z,13.60
2022-10-08T04:50:10.489Z,13.60
2022-10-08T04:52:37.194Z,13.60
2022-10-08T04:55:03.999Z,13.50
2022-10-08T04:57:31.429Z,13.50
2022-10-08T05:00:17.020Z,13.50
2022-10-08T05:02:45.034Z,13.50
2022-10-08T05:05:12.032Z,13.50
2022-10-08T05:07:38.879Z,13.40
2022-10-08T05:10:05.906Z,13.30
2022-10-08T05:12:32.605Z,13.30
2022-10-08T05:14:59.399Z,13.20
2022-10-08T05:17:26.121Z,13.10
2022-10-08T05:19:52.967Z,13.10
2022-10-08T05:22:19.763Z,13.10
2022-10-08T05:24:46.509Z,13.00
2022-10-08T05:27:13.282Z,13.00
2022-10-08T05:29:40.009Z,13.10
2022-10-08T05:32:06.713Z,13.10
2022-10-08T05:34:33.471Z,13.10
2022-10-08T05:37:00.171Z,13.00
2022-10-08T05:39:26.868Z,13.10
2022-10-08T05:41:54.340Z,13.00
2022-10-08T05:44:21.166Z,13.10
2022-10-08T05:46:48.404Z,13.10
2022-10-08T05:49:19.849Z,13.00
2022-10-08T05:51:47.361Z,13.00
2022-10-08T05:54:14.101Z,13.00
2022-10-08T05:56:40.867Z,13.00
2022-10-08T05:59:07.707Z,13.10
2022-10-08T06:01:34.957Z,13.20
2022-10-08T06:04:08.106Z,13.30
2022-10-08T06:06:39.968Z,13.50
2022-10-08T06:09:07.160Z,13.50
2022-10-08T06:11:35.069Z,13.50
2022-10-08T06:14:02.179Z,13.60
2022-10-08T06:16:29.486Z,13.70
2022-10-08T06:18:56.358Z,13.80
2022-10-08T06:21:24.456Z,13.80
2022-10-08T06:23:52.893Z,13.80
2022-10-08T06:26:20.006Z,13.80
2022-10-08T06:28:46.886Z,13.90
2022-10-08T06:31:13.999Z,14.00
2022-10-08T06:33:40.949Z,14.10
2022-10-08T06:36:12.993Z,14.20
2022-10-08T06:38:39.756Z,14.40
2022-10-08T06:41:06.559Z,14.60
2022-10-08T06:43:33.303Z,14.90
2022-10-08T06:46:03.579Z,15.20
2022-10-08T06:48:30.387Z,15.40
2022-10-08T06:50:58.334Z,15.50
2022-10-08T06:53:25.041Z,15.70
2022-10-08T06:55:55.950Z,15.90
2022-10-08T06:58:22.711Z,16.10
2022-10-08T07:00:49.478Z,16.40
2022-10-08T07:03:16.253Z,16.50
2022-10-08T07:05:44.762Z,16.60
2022-10-08T07:08:13.505Z,16.70
2022-10-08T07:10:40.293Z,16.90
2022-10-08T07:13:08.946Z,17.10
2022-10-08T07:15:35.730Z,17.30
2022-10-08T07:18:02.486Z,17.40
2022-10-08T07:20:29.202Z,17.50
2022-10-08T07:22:55.961Z,17.50
2022-10-08T07:25:22.655Z,17.70
2022-10-08T07:27:49.495Z,17.80
2022-10-08T07:30:16.250Z,17.90
2022-10-08T07:32:42.941Z,18.10
2022-10-08T07:35:10.089Z,18.20
2022-10-08T07:37:36.838Z,18.20
2022-10-08T07:40:03.713Z,18.30
2022-10-08T07:42:31.762Z,18.40
2022-10-08T07:44:58.459Z,18.50
2022-10-08T07:47:25.300Z,18.60
2022-10-08T07:49:52.037Z,18.60
2022-10-08T07:52:18.796Z,18.70
2022-10-08T07:54:45.580Z,18.90
2022-10-08T07:57:12.327Z,19.10
2022-10-08T07:59:39.029Z,19.10
2022-10-08T08:02:06.190Z,19.10
2022-10-08T08:04:32.947Z,19.20
2022-10-08T08:06:59.687Z,19.30
2022-10-08T08:09:26.448Z,19.50
2022-10-08T08:11:53.287Z,19.60
2022-10-08T08:14:21.494Z,19.80
2022-10-08T08:16:48.784Z,19.80
2022-10-08T08:19:15.559Z,19.80
2022-10-08T08:21:42.285Z,19.90
2022-10-08T08:24:13.024Z,20.00
2022-10-08T08:26:40.963Z,20.00
2022-10-08T08:29:09.921Z,20.10
2022-10-08T08:31:37.744Z,20.30
2022-10-08T08:34:08.834Z,20.40
2022-10-08T08:36:37.121Z,20.50
2022-10-08T08:39:04.728Z,20.50
2022-10-08T08:41:46.644Z,20.50
2022-10-08T08:44:18.756Z,20.60
2022-10-08T08:46:47.931Z,20.70
2022-10-08T08:49:21.368Z,20.80
2022-10-08T08:51:48.096Z,20.80
2022-10-08T08:54:14.903Z,20.90
2022-10-08T08:56:41.907Z,21.00
2022-10-08T08:59:14.377Z,21.20
2022-10-08T09:01:45.583Z,21.20
2022-10-08T09:04:21.550Z,21.40
2022-10-08T09:06:49.361Z,21.40
2022-10-08T09:09:22.792Z,21.40
2022-10-08T09:11:49.840Z,21.40
2022-10-08T09:14:19.576Z,21.50
2022-10-08T09:16:46.944Z,21.60
2022-10-08T09:19:13.765Z,21.70
2022-10-08T09:21:40.473Z,21.80
2022-10-08T09:24:07.237Z,21.80
2022-10-08T09:26:35.316Z,21.80
2022-10-08T09:29:05.445Z,22.00
2022-10-08T09:31:38.218Z,22.10
2022-10-08T09:34:15.708Z,22.20
2022-10-08T09:36:44.212Z,22.30
2022-10-08T09:39:18.740Z,22.20
2022-10-08T09:41:46.377Z,22.20
2022-10-08T09:44:13.076Z,22.40
2022-10-08T09:46:39.996Z,22.50
2022-10-08T09:49:26.936Z,22.60
2022-10-08T09:51:54.330Z,22.50
2022-10-08T09:54:25.989Z,22.60
2022-10-08T09:56:54.490Z,22.70
2022-10-08T09:59:22.837Z,22.80
2022-10-08T10:01:49.833Z,22.60
2022-10-08T10:04:36.349Z,22.70
2022-10-08T10:07:03.899Z,22.90
2022-10-08T10:09:44.735Z,23.00
2022-10-08T10:12:35.654Z,23.00
2022-10-08T10:15:04.634Z,23.10
2022-10-08T10:17:35.783Z,23.10
2022-10-08T10:20:11.693Z,23.20
2022-10-08T10:22:44.194Z,23.40
2022-10-08T10:25:14.080Z,23.40
2022-10-08T10:28:06.872Z,23.30
2022-10-08T10:30:41.835Z,23.30
2022-10-08T10:33:15.285Z,23.20
2022-10-08T10:35:47.113Z,23.30
2022-10-08T10:38:17.099Z,23.20
2022-10-08T10:41:04.096Z,23.60
2022-10-08T10:43:49.248Z,23.60
2022-10-08T10:46:18.993Z,23.70
2022-10-08T10:48:45.824Z,23.90
2022-10-08T10:51:19.193Z,23.60
2022-10-08T10:53:57.376Z,23.50
2022-10-08T10:56:25.641Z,23.50
2022-10-08T10:58:55.401Z,23.50
2022-10-08T11:01:34.860Z,23.70
2022-10-08T11:04:18.615Z,23.80
2022-10-08T11:06:54.560Z,24.20
2022-10-08T11:09:21.283Z,24.20
2022-10-08T11:12:00.819Z,24.10
2022-10-08T11:14:50.366Z,24.00
2022-10-08T11:17:27.536Z,24.10
2022-10-08T11:19:55.568Z,24.30
2022-10-08T11:22:33.063Z,24.30
2022-10-08T11:24:59.788Z,24.00
2022-10-08T11:27:44.907Z,23.90
2022-10-08T11:30:14.754Z,23.90
2022-10-08T11:32:44.092Z,24.20
2022-10-08T11:35:18.418Z,24.50
2022-10-08T11:38:04.035Z,24.30
2022-10-08T11:40:40.021Z,24.40
2022-10-08T11:43:16.767Z,24.30
2022-10-08T11:45:49.863Z,24.60
2022-10-08T11:48:33.245Z,24.40
2022-10-08T11:51:32.246Z,24.50
2022-10-08T11:53:58.999Z,24.50
2022-10-08T11:56:25.747Z,24.60
2022-10-08T11:58:53.795Z,24.40
2022-10-08T12:01:20.741Z,24.60
2022-10-08T12:04:00.535Z,24.80
2022-10-08T12:06:32.854Z,24.80
2022-10-08T12:09:00.764Z,24.90
2022-10-08T12:11:36.567Z,24.90
2022-10-08T12:14:25.777Z,24.50
2022-10-08T12:16:55.613Z,24.80
2022-10-08T12:19:34.612Z,24.40
2022-10-08T12:22:16.729Z,24.30
2022-10-08T12:24:50.293Z,24.10
2022-10-08T12:27:17.390Z,24.20
2022-10-08T12:29:58.662Z,24.50
2022-10-08T12:32:51.472Z,24.60
2022-10-08T12:35:31.278Z,24.70
2022-10-08T12:38:01.049Z,24.70
2022-10-08T12:40:33.581Z,24.70
2022-10-08T12:43:08.593Z,24.50
2022-10-08T12:45:42.195Z,24.70
2022-10-08T12:48:31.945Z,24.80
2022-10-08T12:51:17.696Z,24.90
2022-10-08T12:53:45.827Z,24.70
2022-10-08T12:56:22.265Z,24.50
2022-10-08T12:58:49.515Z,24.40
2022-10-08T13:01:18.161Z,24.50
2022-10-08T13:03:45.067Z,24.40
2022-10-08T13:06:29.379Z,24.60
2022-10-08T13:08:59.905Z,24.30
2022-10-08T13:11:28.127Z,24.30
2022-10-08T13:13:54.944Z,24.40
2022-10-08T13:16:22.727Z,24.40
2022-10-08T13:18:59.961Z,24.20
2022-10-08T13:21:32.563Z,24.20
2022-10-08T13:23:59.858Z,24.30
2022-10-08T13:26:43.624Z,24.40
2022-10-08T13:29:17.300Z,24.50
2022-10-08T13:31:50.848Z,24.70
2022-10-08T13:34:18.321Z,24.60
2022-10-08T13:36:50.159Z,24.50
2022-10-08T13:39:21.387Z,24.60
2022-10-08T13:41:53.609Z,24.70
2022-10-08T13:44:20.347Z,24.50
2022-10-08T13:46:47.217Z,24.60
2022-10-08T13:49:19.056Z,24.70
2022-10-08T13:51:45.896Z,24.60
2022-10-08T13:54:21.063Z,24.60
2022-10-08T13:56:48.103Z,24.60
2022-10-08T13:59:15.192Z,24.60
2022-10-08T14:01:41.998Z,24.40
2022-10-08T14:04:08.973Z,24.30
2022-10-08T14:06:36.140Z,24.40
2022-10-08T14:09:03.237Z,24.40
2022-10-08T14:11:30.600Z,24.20
2022-10-08T14:13:57.342Z,24.20
2022-10-08T14:16:24.124Z,24.20
2022-10-08T14:18:50.842Z,24.20
2022-10-08T14:21:17.664Z,24.20
2022-10-08T14:23:44.593Z,24.00
2022-10-08T14:26:14.204Z,24.00
2022-10-08T14:28:41.126Z,24.10
2022-10-08T14:31:08.006Z,24.30
2022-10-08T14:33:34.840Z,24.30
2022-10-08T14:36:01.925Z,24.30
2022-10-08T14:38:32.743Z,24.30
2022-10-08T14:40:59.874Z,24.40
2022-10-08T14:43:27.757Z,24.30
2022-10-08T14:45:54.694Z,24.20
2022-10-08T14:48:21.689Z,24.30
2022-10-08T14:50:48.461Z,24.20
2022-10-08T14:53:15.239Z,24.10
2022-10-08T14:56:07.467Z,24.00
2022-10-08T14:58:28.872Z,24.20
2022-10-08T15:00:56.080Z,24.00
2022-10-08T15:03:23.459Z,24.10
2022-10-08T15:05:50.712Z,24.00
2022-10-08T15:08:17.499Z,24.00
2022-10-08T15:10:44.729Z,24.00
2022-10-08T15:13:11.824Z,23.90
2022-10-08T15:15:45.195Z,23.70
2022-10-08T15:18:12.241Z,23.60
2022-10-08T15:20:39.170Z,23.50
2022-10-08T15:23:07.239Z,23.50
2022-10-08T15:25:34.122Z,23.50
2022-10-08T15:28:01.084Z,23.50
2022-10-08T15:30:28.308Z,23.30
2022-10-08T15:32:55.366Z,23.20
2022-10-08T15:35:22.599Z,23.00
2022-10-08T15:37:49.377Z,23.00
2022-10-08T15:40:16.165Z,22.80
2022-10-08T15:42:42.872Z,22.70
2022-10-08T15:45:09.766Z,22.60
2022-10-08T15:47:36.490Z,22.60
2022-10-08T15:50:04.126Z,22.50
2022-10-08T15:52:30.929Z,22.60
2022-10-08T15:54:57.695Z,22.60
2022-10-08T15:57:24.690Z,22.50
2022-10-08T15:59:51.446Z,22.40
2022-10-08T16:02:18.859Z,22.30
2022-10-08T16:04:46.716Z,22.20
2022-10-08T16:07:13.517Z,22.00
2022-10-08T16:09:40.286Z,21.70
2022-10-08T16:12:07.253Z,21.60
2022-10-08T16:14:34.047Z,21.40
2022-10-08T16:17:00.876Z,21.30
2022-10-08T16:19:27.902Z,21.20
2022-10-08T16:21:55.765Z,21.00
2022-10-08T16:24:22.596Z,20.90
2022-10-08T16:26:49.543Z,20.80
2022-10-08T16:29:17.041Z,20.80
2022-10-08T16:31:44.535Z,20.60
2022-10-08T16:34:12.603Z,20.50
2022-10-08T16:36:39.620Z,20.40
2022-10-08T16:39:07.154Z,20.30
2022-10-08T16:41:34.706Z,20.20
2022-10-08T16:44:12.315Z,20.10
2022-10-08T16:46:43.849Z,20.10
2022-10-08T16:49:21.088Z,20.00
2022-10-08T16:51:50.817Z,20.00
2022-10-08T16:54:18.088Z,20.00
2022-10-08T16:56:45.961Z,19.90
2022-10-08T16:59:14.617Z,19.90
2022-10-08T17:01:45.268Z,19.80
2022-10-08T17:04:12.745Z,19.80
2022-10-08T17:06:39.905Z,19.70
2022-10-08T17:09:07.266Z,19.60
2022-10-08T17:11:34.216Z,19.60
2022-10-08T17:14:01.306Z,19.50
2022-10-08T17:16:29.173Z,19.50
2022-10-08T17:18:56.916Z,19.40
2022-10-08T17:21:23.803Z,19.40
2022-10-08T17:23:50.852Z,19.40
2022-10-08T17:26:18.874Z,19.40
2022-10-08T17:28:46.952Z,19.30
2022-10-08T17:31:15.672Z,19.30
2022-10-08T17:33:42.644Z,19.30
2022-10-08T17:36:14.156Z,19.20
2022-10-08T17:38:41.577Z,19.10
2022-10-08T17:41:18.748Z,19.20
2022-10-08T17:43:46.024Z,19.20
2022-10-08T17:46:17.015Z,19.10
2022-10-08T17:48:44.099Z,19.00
2022-10-08T17:51:12.443Z,19.00
2022-10-08T17:53:39.454Z,19.00
2022-10-08T17:56:07.380Z,19.10
2022-10-08T17:58:34.425Z,19.10
2022-10-08T18:01:06.943Z,19.10
2022-10-08T18:03:34.159Z,19.00
2022-10-08T18:06:00.981Z,19.10
2022-10-08T18:08:28.053Z,19.00
2022-10-08T18:10:54.900Z,19.10
2022-10-08T18:13:21.946Z,19.10
2022-10-08T18:15:48.836Z,19.10
2022-10-08T18:18:15.731Z,19.00
2022-10-08T18:20:51.864Z,19.00
2022-10-08T18:23:18.783Z,19.00
2022-10-08T18:25:45.529Z,18.90
2022-10-08T18:28:12.331Z,18.90
2022-10-08T18:30:39.457Z,18.90
2022-10-08T18:33:06.366Z,19.00
2022-10-08T18:35:33.231Z,19.00
2022-10-08T18:37:59.993Z,19.00
2022-10-08T18:40:28.748Z,18.90
2022-10-08T18:42:55.523Z,18.90
2022-10-08T18:45:22.328Z,18.90
2022-10-08T18:47:49.032Z,18.90
2022-10-08T18:50:15.775Z,18.80
2022-10-08T18:52:42.484Z,18.90
2022-10-08T18:55:09.508Z,18.90
2022-10-08T18:57:36.249Z,18.90
2022-10-08T19:00:03.604Z,18.80
2022-10-08T19:02:30.491Z,18.90
2022-10-08T19:04:58.039Z,19.00
2022-10-08T19:07:24.944Z,19.10
2022-10-08T19:09:51.896Z,19.00
2022-10-08T19:12:18.747Z,19.00
2022-10-08T19:14:45.580Z,19.00
2022-10-08T19:17:12.647Z,19.00
2022-10-08T19:19:39.403Z,19.00
2022-10-08T19:22:06.463Z,19.00
2022-10-08T19:24:36.345Z,19.00
2022-10-08T19:27:05.365Z,19.10
2022-10-08T19:29:35.222Z,19.00
2022-10-08T19:32:02.345Z,18.90
2022-10-08T19:34:29.200Z,18.90
2022-10-08T19:36:56.097Z,18.80
2022-10-08T19:39:24.396Z,18.80
2022-10-08T19:41:51.316Z,18.80
2022-10-08T19:44:18.241Z,18.70
2022-10-08T19:46:45.424Z,18.70
2022-10-08T19:49:12.262Z,18.60
2022-10-08T19:51:39.126Z,18.50
2022-10-08T19:54:06.419Z,18.40
2022-10-08T19:56:33.369Z,18.50
2022-10-08T19:59:00.228Z,18.40
2022-10-08T20:01:28.584Z,18.50
2022-10-08T20:03:56.169Z,18.40
2022-10-08T20:06:25.140Z,18.50
2022-10-08T20:08:55.894Z,18.40
2022-10-08T20:11:23.111Z,18.40
2022-10-08T20:13:50.747Z,18.50
2022-10-08T20:16:19.039Z,18.50
2022-10-08T20:18:59.497Z,18.40
2022-10-08T20:21:27.237Z,18.50
2022-10-08T20:23:54.629Z,18.50
2022-10-08T20:26:22.701Z,18.40
2022-10-08T20:28:51.012Z,18.40
2022-10-08T20:31:17.975Z,18.30
2022-10-08T20:33:45.454Z,18.30
2022-10-08T20:36:13.709Z,18.30
2022-10-08T20:38:41.212Z,18.40
2022-10-08T20:41:08.122Z,18.40
2022-10-08T20:43:35.817Z,18.30
2022-10-08T20:46:03.456Z,18.30
2022-10-08T20:48:34.342Z,18.20
2022-10-08T20:51:05.439Z,18.10
2022-10-08T20:53:32.590Z,18.10
2022-10-08T20:56:03.225Z,18.00
2022-10-08T20:58:31.462Z,18.10
2022-10-08T21:01:05.577Z,18.20
2022-10-08T21:03:32.669Z,18.10
2022-10-08T21:06:00.322Z,18.20
2022-10-08T21:08:27.051Z,18.10
2022-10-08T21:10:53.830Z,18.10
2022-10-08T21:13:20.665Z,18.10
2022-10-08T21:15:47.420Z,18.00
2022-10-08T21:18:14.288Z,18.00
2022-10-08T21:20:41.080Z,18.10
2022-10-08T21:23:07.860Z,18.10
2022-10-08T21:25:35.093Z,18.00
2022-10-08T21:28:01.870Z,17.90
2022-10-08T21:30:28.730Z,17.90
2022-10-08T21:32:55.505Z,17.90
2022-10-08T21:35:22.208Z,17.90
2022-10-08T21:37:48.953Z,17.90
2022-10-08T21:40:15.861Z,17.80
2022-10-08T21:42:42.697Z,17.70
2022-10-08T21:45:09.684Z,17.60
2022-10-08T21:47:36.541Z,17.50
2022-10-08T21:50:03.405Z,17.60
2022-10-08T21:52:30.174Z,17.60
2022-10-08T21:54:56.954Z,17.50
2022-10-08T21:57:24.503Z,17.40
2022-10-08T21:59:51.228Z,17.30
2022-10-08T22:02:18.051Z,17.30
2022-10-08T22:04:44.811Z,17.20
2022-10-08T22:07:11.607Z,17.30
2022-10-08T22:09:38.452Z,17.30
2022-10-08T22:12:05.251Z,17.30
2022-10-08T22:14:32.049Z,17.30
2022-10-08T22:16:58.760Z,17.30
2022-10-08T22:19:25.604Z,17.40
2022-10-08T22:21:52.350Z,17.40
2022-10-08T22:24:19.095Z,17.40
2022-10-08T22:26:47.033Z,17.40
2022-10-08T22:29:14.255Z,17.40
2022-10-08T22:31:41.127Z,17.50
2022-10-08T22:34:08.016Z,17.50
2022-10-08T22:36:37.165Z,17.50
2022-10-08T22:39:03.889Z,17.50
2022-10-08T22:41:31.336Z,17.50
2022-10-08T22:43:58.326Z,17.40
2022-10-08T22:46:26.529Z,17.50
2022-10-08T22:48:57.285Z,17.40
2022-10-08T22:51:24.734Z,17.50
2022-10-08T22:53:51.579Z,17.40
2022-10-08T22:56:19.713Z,17.40
2022-10-08T22:58:47.009Z,17.40
2022-10-08T23:01:14.949Z,17.40
2022-10-08T23:03:42.047Z,17.40
2022-10-08T23:06:08.843Z,17.30
2022-10-08T23:08:35.959Z,17.30
2022-10-08T23:11:03.217Z,17.30
2022-10-08T23:13:30.588Z,17.30
2022-10-08T23:16:10.151Z,17.20
2022-10-08T23:18:38.404Z,17.20
2022-10-08T23:21:06.291Z,17.20
2022-10-08T23:23:33.551Z,17.20
2022-10-08T23:26:01.228Z,17.20
2022-10-08T23:28:28.693Z,17.20
2022-10-08T23:30:55.540Z,17.30
2022-10-08T23:33:22.307Z,17.30
2022-10-08T23:35:58.387Z,17.30
2022-10-08T23:38:25.162Z,17.30
2022-10-08T23:40:52.006Z,17.30
2022-10-08T23:43:18.815Z,17.40
2022-10-08T23:45:45.676Z,17.40
2022-10-08T23:48:12.486Z,17.30
2022-10-08T23:50:39.524Z,17.20
2022-10-08T23:53:06.259Z,17.20
2022-10-08T23:55:33.024Z,17.10
2022-10-08T23:57:59.760Z,17.10
